createdAt,value
2023-09-02T00:00:38.326Z,19.34
2023-09-02T00:03:07.339Z,19.15
2023-09-02T00:05:35.034Z,19.16
2023-09-02T00:08:03.472Z,19.38
2023-09-02T00:10:31.102Z,19.30
2023-09-02T00:12:59.105Z,19.25
2023-09-02T00:15:26.643Z,19.29
2023-09-02T00:17:54.193Z,19.36
2023-09-02T00:20:23.870Z,19.47
2023-09-02T00:22:52.359Z,19.18
2023-09-02T00:25:20.406Z,19.01
2023-09-02T00:27:47.919Z,18.91
2023-09-02T00:30:16.105Z,19.11
2023-09-02T00:32:44.434Z,19.23
2023-09-02T00:35:12.334Z,19.20
2023-09-02T00:37:41.375Z,19.19
2023-09-02T00:40:14.832Z,19.35
2023-09-02T00:42:43.947Z,19.29
2023-09-02T00:45:12.298Z,19.22
2023-09-02T00:47:40.015Z,19.33
2023-09-02T00:50:09.108Z,19.50
2023-09-02T00:52:36.897Z,19.16
2023-09-02T00:55:06.536Z,19.21
2023-09-02T00:57:33.689Z,19.07
2023-09-02T01:00:02.693Z,18.96
2023-09-02T01:02:32.351Z,18.89
2023-09-02T01:05:00.387Z,18.96
2023-09-02T01:07:28.006Z,19.05
2023-09-02T01:09:57.596Z,19.03
2023-09-02T01:12:28.759Z,19.14
2023-09-02T01:14:58.393Z,19.03
2023-09-02T01:17:27.581Z,19.17
2023-09-02T01:19:56.774Z,19.21
2023-09-02T01:22:42.510Z,19.06
2023-09-02T01:25:30.274Z,19.03
2023-09-02T01:28:04.448Z,19.09
2023-09-02T01:30:34.564Z,19.16
2023-09-02T01:33:05.804Z,19.15
2023-09-02T01:35:35.818Z,19.15
2023-09-02T01:38:07.059Z,19.07
2023-09-02T01:40:35.651Z,19.12
2023-09-02T01:43:05.609Z,19.08
2023-09-02T01:45:35.600Z,19.00
2023-09-02T01:48:04.692Z,18.94
2023-09-02T01:50:34.944Z,19.08
2023-09-02T01:53:03.541Z,19.16
2023-09-02T01:55:33.488Z,19.22
2023-09-02T01:58:02.165Z,19.35
2023-09-02T02:00:31.578Z,19.54
2023-09-02T02:02:59.290Z,19.21
2023-09-02T02:05:38.298Z,19.18
2023-09-02T02:08:12.317Z,19.31
2023-09-02T02:10:43.056Z,19.14
2023-09-02T02:13:11.089Z,19.24
2023-09-02T02:15:40.240Z,19.31
2023-09-02T02:18:07.934Z,19.29
2023-09-02T02:20:45.455Z,19.19
2023-09-02T02:23:13.428Z,19.30
2023-09-02T02:25:41.745Z,19.68
2023-09-02T02:28:09.351Z,19.49
2023-09-02T02:30:37.516Z,19.33
2023-09-02T02:33:06.903Z,19.29
2023-09-02T02:35:34.556Z,19.36
2023-09-02T02:38:02.210Z,19.34
2023-09-02T02:40:29.895Z,19.25
2023-09-02T02:42:57.431Z,19.11
2023-09-02T02:45:25.172Z,19.20
2023-09-02T02:47:52.868Z,19.11
2023-09-02T02:50:23.285Z,19.05
2023-09-02T02:52:51.317Z,19.14
2023-09-02T02:55:19.406Z,19.08
2023-09-02T02:57:47.093Z,19.29
2023-09-02T03:00:15.686Z,19.29
2023-09-02T03:02:43.544Z,19.26
2023-09-02T03:05:11.287Z,19.10
2023-09-02T03:07:41.821Z,19.11
2023-09-02T03:10:10.199Z,19.26
2023-09-02T03:12:38.301Z,19.29
2023-09-02T03:15:09.425Z,19.32
2023-09-02T03:17:37.937Z,19.26
2023-09-02T03:20:08.346Z,19.33
2023-09-02T03:22:43.240Z,19.23
2023-09-02T03:25:11.363Z,19.15
2023-09-02T03:27:39.287Z,19.34
2023-09-02T03:30:09.066Z,19.39
2023-09-02T03:32:37.264Z,19.46
2023-09-02T03:35:05.569Z,19.34
2023-09-02T03:37:33.293Z,19.36
2023-09-02T03:40:03.561Z,19.36
2023-09-02T03:42:31.206Z,19.53
2023-09-02T03:44:59.244Z,19.57
2023-09-02T03:47:31.376Z,19.35
2023-09-02T03:50:01.691Z,19.39
2023-09-02T03:52:30.627Z,19.40
2023-09-02T03:54:58.805Z,19.41
2023-09-02T03:57:28.226Z,19.51
2023-09-02T03:59:55.850Z,19.71
2023-09-02T04:02:23.535Z,19.61
2023-09-02T04:04:51.530Z,19.52
2023-09-02T04:07:19.252Z,19.57
2023-09-02T04:09:46.816Z,19.60
2023-09-02T04:12:14.661Z,19.51
2023-09-02T04:14:44.621Z,19.57
2023-09-02T04:17:13.148Z,19.57
2023-09-02T04:19:41.291Z,19.61
2023-09-02T04:22:09.011Z,19.64
2023-09-02T04:24:36.875Z,19.68
2023-09-02T04:27:05.807Z,19.70
2023-09-02T04:29:33.906Z,19.66
2023-09-02T04:32:03.727Z,19.76
2023-09-02T04:34:31.295Z,19.77
2023-09-02T04:36:59.513Z,19.71
2023-09-02T04:39:27.208Z,19.66
2023-09-02T04:41:54.819Z,19.74
2023-09-02T04:44:22.697Z,19.83
2023-09-02T04:46:50.331Z,20.00
2023-09-02T04:49:20.044Z,20.00
2023-09-02T04:51:48.937Z,19.88
2023-09-02T04:54:18.760Z,19.81
2023-09-02T04:56:47.303Z,19.88
2023-09-02T04:59:15.848Z,20.01
2023-09-02T05:01:43.959Z,19.89
2023-09-02T05:04:12.375Z,19.83
2023-09-02T05:06:42.577Z,19.94
2023-09-02T05:09:10.307Z,20.00
2023-09-02T05:11:38.053Z,20.00
2023-09-02T05:14:05.883Z,20.27
2023-09-02T05:16:35.029Z,20.35
2023-09-02T05:19:03.600Z,20.24
2023-09-02T05:21:31.838Z,20.12
2023-09-02T05:24:01.385Z,20.21
2023-09-02T05:26:30.124Z,20.12
2023-09-02T05:28:58.673Z,20.05
2023-09-02T05:31:26.619Z,20.09
2023-09-02T05:33:54.220Z,20.19
2023-09-02T05:36:22.110Z,20.14
2023-09-02T05:38:49.735Z,20.13
2023-09-02T05:41:18.796Z,20.13
2023-09-02T05:43:46.536Z,20.15
2023-09-02T05:46:14.152Z,20.06
2023-09-02T05:48:42.931Z,20.11
2023-09-02T05:51:11.022Z,20.19
2023-09-02T05:53:40.697Z,20.18
2023-09-02T05:56:08.721Z,20.09
2023-09-02T05:58:37.845Z,19.96
2023-09-02T06:01:07.053Z,19.87
2023-09-02T06:03:34.769Z,19.67
2023-09-02T06:06:09.844Z,19.72
2023-09-02T06:08:37.991Z,19.51
2023-09-02T06:11:06.708Z,19.46
2023-09-02T06:13:36.366Z,19.36
2023-09-02T06:16:07.750Z,19.44
2023-09-02T06:18:37.556Z,19.44
2023-09-02T06:21:11.938Z,19.38
2023-09-02T06:23:42.706Z,19.44
2023-09-02T06:26:12.027Z,19.31
2023-09-02T06:28:41.424Z,19.43
2023-09-02T06:31:12.419Z,19.28
2023-09-02T06:33:41.031Z,19.37
2023-09-02T06:36:12.961Z,19.45
2023-09-02T06:38:41.653Z,19.39
2023-09-02T06:41:13.889Z,19.29
2023-09-02T06:43:43.179Z,19.43
2023-09-02T06:46:14.806Z,19.46
2023-09-02T06:48:43.821Z,19.50
2023-09-02T06:51:12.527Z,19.44
2023-09-02T06:53:41.254Z,19.27
2023-09-02T06:56:09.508Z,19.22
2023-09-02T06:58:39.567Z,19.20
2023-09-02T07:01:07.984Z,19.24
2023-09-02T07:03:37.066Z,19.42
2023-09-02T07:06:08.316Z,19.45
2023-09-02T07:08:36.231Z,19.54
2023-09-02T07:11:03.849Z,19.39
2023-09-02T07:13:31.500Z,19.43
2023-09-02T07:16:00.734Z,19.41
2023-09-02T07:18:28.618Z,19.31
2023-09-02T07:21:00.336Z,19.44
2023-09-02T07:23:28.464Z,19.34
2023-09-02T07:25:57.093Z,19.45
2023-09-02T07:28:24.667Z,19.53
2023-09-02T07:30:52.299Z,19.46
2023-09-02T07:33:21.327Z,19.41
2023-09-02T07:35:49.322Z,19.43
2023-09-02T07:38:18.372Z,19.43
2023-09-02T07:40:46.114Z,19.34
2023-09-02T07:43:13.621Z,19.32
2023-09-02T07:45:41.444Z,19.41
2023-09-02T07:48:09.173Z,19.33
2023-09-02T07:50:36.765Z,19.48
2023-09-02T07:53:04.767Z,19.40
2023-09-02T07:55:34.148Z,19.23
2023-09-02T07:58:01.797Z,19.16
2023-09-02T08:00:29.815Z,19.19
2023-09-02T08:02:58.771Z,19.20
2023-09-02T08:05:27.139Z,19.27
2023-09-02T08:07:55.580Z,19.22
2023-09-02T08:10:24.397Z,19.44
2023-09-02T08:12:53.881Z,19.09
2023-09-02T08:15:22.473Z,19.07
2023-09-02T08:17:51.606Z,19.15
2023-09-02T08:20:19.543Z,19.04
2023-09-02T08:22:47.158Z,19.12
2023-09-02T08:25:14.672Z,19.13
2023-09-02T08:27:45.206Z,18.99
2023-09-02T08:30:15.003Z,19.11
2023-09-02T08:32:42.848Z,19.11
2023-09-02T08:35:11.201Z,19.18
2023-09-02T08:37:38.729Z,19.26
2023-09-02T08:40:08.254Z,19.08
2023-09-02T08:42:36.284Z,19.12
2023-09-02T08:45:08.441Z,19.14
2023-09-02T08:47:40.213Z,19.18
2023-09-02T08:50:08.942Z,19.04
2023-09-02T08:52:37.063Z,18.97
2023-09-02T08:55:05.367Z,18.97
2023-09-02T08:57:35.215Z,18.94
2023-09-02T09:00:03.977Z,18.99
2023-09-02T09:02:34.801Z,18.99
2023-09-02T09:05:07.613Z,18.90
2023-09-02T09:07:36.878Z,18.89
2023-09-02T09:10:10.225Z,18.90
2023-09-02T09:12:39.560Z,19.03
2023-09-02T09:15:10.886Z,19.13
2023-09-02T09:17:39.892Z,19.05
2023-09-02T09:20:11.920Z,19.07
2023-09-02T09:22:41.708Z,19.07
2023-09-02T09:25:13.259Z,19.16
2023-09-02T09:27:42.329Z,19.23
2023-09-02T09:30:27.610Z,19.46
2023-09-02T09:32:58.887Z,19.43
2023-09-02T09:35:28.365Z,19.34
2023-09-02T09:37:56.713Z,19.35
2023-09-02T09:40:31.328Z,19.19
2023-09-02T09:42:59.877Z,19.50
2023-09-02T09:45:27.638Z,19.47
2023-09-02T09:47:58.109Z,19.27
2023-09-02T09:50:29.015Z,19.30
2023-09-02T09:53:01.529Z,19.38
2023-09-02T09:55:30.405Z,19.45
2023-09-02T09:57:59.897Z,19.48
2023-09-02T10:00:29.825Z,19.42
2023-09-02T10:02:59.356Z,19.36
2023-09-02T10:05:29.417Z,19.32
2023-09-02T10:08:00.030Z,19.35
2023-09-02T10:10:33.570Z,19.40
2023-09-02T10:13:02.518Z,19.39
2023-09-02T10:15:30.969Z,19.45
2023-09-02T10:18:01.516Z,19.27
2023-09-02T10:20:32.382Z,19.34
2023-09-02T10:23:05.917Z,19.37
2023-09-02T10:25:44.314Z,19.43
2023-09-02T10:28:15.454Z,19.53
2023-09-02T10:30:47.621Z,19.47
2023-09-02T10:33:21.925Z,19.43
2023-09-02T10:35:58.184Z,19.47
2023-09-02T10:38:28.143Z,19.46
2023-09-02T10:41:02.920Z,19.43
2023-09-02T10:43:32.083Z,19.53
2023-09-02T10:46:00.677Z,19.47
2023-09-02T10:48:28.242Z,19.57
2023-09-02T10:50:57.963Z,19.52
2023-09-02T10:53:39.727Z,19.59
2023-09-02T10:56:07.526Z,19.47
2023-09-02T10:58:47.855Z,19.38
2023-09-02T11:01:15.623Z,19.46
2023-09-02T11:03:43.707Z,19.31
2023-09-02T11:06:12.831Z,19.23
2023-09-02T11:08:47.154Z,19.24
2023-09-02T11:11:14.753Z,19.22
2023-09-02T11:14:19.555Z,19.37
2023-09-02T11:17:25.833Z,19.21
2023-09-02T11:20:01.407Z,19.39
2023-09-02T11:22:50.797Z,19.44
2023-09-02T11:25:32.782Z,19.38
2023-09-02T11:28:01.559Z,19.51
2023-09-02T11:30:29.772Z,19.27
2023-09-02T11:32:58.092Z,19.33
2023-09-02T11:35:27.398Z,19.42
2023-09-02T11:37:57.142Z,19.48
2023-09-02T11:40:25.103Z,19.54
2023-09-02T11:42:53.791Z,19.47
2023-09-02T11:45:21.772Z,19.51
2023-09-02T11:47:50.304Z,19.41
2023-09-02T11:50:19.335Z,19.50
2023-09-02T11:52:47.693Z,19.49
2023-09-02T11:55:17.716Z,19.44
2023-09-02T11:57:46.782Z,19.55
2023-09-02T12:00:18.609Z,19.59
2023-09-02T12:02:47.514Z,19.52
2023-09-02T12:05:15.872Z,19.06
2023-09-02T12:07:44.484Z,19.05
2023-09-02T12:10:13.484Z,18.76
2023-09-02T12:12:44.382Z,18.72
2023-09-02T12:15:13.176Z,18.75
2023-09-02T12:17:41.299Z,19.02
2023-09-02T12:20:10.913Z,18.87
2023-09-02T12:22:39.061Z,18.83
2023-09-02T12:25:18.167Z,19.13
2023-09-02T12:27:48.363Z,19.17
2023-09-02T12:30:26.464Z,19.14
2023-09-02T12:32:55.084Z,19.29
2023-09-02T12:35:22.913Z,19.24
2023-09-02T12:38:01.560Z,19.20
2023-09-02T12:40:29.459Z,19.23
2023-09-02T12:42:58.970Z,19.32
2023-09-02T12:45:30.338Z,19.23
2023-09-02T12:47:59.965Z,19.35
2023-09-02T12:50:28.872Z,19.35
2023-09-02T12:52:57.753Z,19.41
2023-09-02T12:55:25.938Z,19.51
2023-09-02T12:57:53.958Z,19.47
2023-09-02T13:00:22.944Z,19.36
2023-09-02T13:02:54.135Z,19.29
2023-09-02T13:05:21.965Z,19.18
2023-09-02T13:07:49.527Z,19.15
2023-09-02T13:10:17.348Z,19.30
2023-09-02T13:12:44.820Z,19.22
2023-09-02T13:15:12.397Z,19.38
2023-09-02T13:17:41.801Z,19.24
2023-09-02T13:20:12.371Z,19.27
2023-09-02T13:22:41.142Z,19.40
2023-09-02T13:25:09.053Z,19.22
2023-09-02T13:27:37.548Z,19.23
2023-09-02T13:30:06.338Z,19.43
2023-09-02T13:32:36.944Z,19.29
2023-09-02T13:35:16.247Z,19.36
2023-09-02T13:37:44.834Z,19.37
2023-09-02T13:40:36.232Z,19.36
2023-09-02T13:43:09.055Z,19.25
2023-09-02T13:45:38.487Z,19.21
2023-09-02T13:48:07.255Z,19.46
2023-09-02T13:50:37.142Z,19.13
2023-09-02T13:53:05.508Z,19.24
2023-09-02T13:55:38.193Z,19.18
2023-09-02T13:58:06.699Z,19.26
2023-09-02T14:00:36.795Z,19.34
2023-09-02T14:03:08.572Z,19.38
2023-09-02T14:05:38.467Z,19.32
2023-09-02T14:08:07.103Z,19.30
2023-09-02T14:10:35.013Z,18.87
2023-09-02T14:13:03.453Z,19.18
2023-09-02T14:15:31.250Z,19.31
2023-09-02T14:17:58.958Z,19.35
2023-09-02T14:20:26.599Z,19.45
2023-09-02T14:22:55.676Z,19.45
2023-09-02T14:25:23.227Z,19.52
2023-09-02T14:27:50.991Z,19.58
2023-09-02T14:30:19.194Z,19.50
2023-09-02T14:32:48.343Z,19.44
2023-09-02T14:35:16.650Z,19.49
2023-09-02T14:37:44.279Z,19.51
2023-09-02T14:40:13.435Z,19.58
2023-09-02T14:42:41.221Z,19.29
2023-09-02T14:45:09.753Z,19.27
2023-09-02T14:47:38.525Z,19.12
2023-09-02T14:50:07.953Z,19.12
2023-09-02T14:52:35.998Z,18.93
2023-09-02T14:55:06.038Z,18.96
2023-09-02T14:57:37.413Z,18.91
2023-09-02T15:00:06.849Z,18.81
2023-09-02T15:02:39.939Z,18.79
2023-09-02T15:05:10.248Z,18.73
2023-09-02T15:07:38.902Z,18.79
2023-09-02T15:10:08.373Z,18.84
2023-09-02T15:12:38.437Z,18.82
2023-09-02T15:15:09.047Z,18.78
2023-09-02T15:17:37.610Z,18.79
2023-09-02T15:20:11.187Z,18.89
2023-09-02T15:22:39.450Z,18.81
2023-09-02T15:25:11.089Z,18.87
2023-09-02T15:27:41.844Z,18.81
2023-09-02T15:30:12.474Z,18.76
2023-09-02T15:32:40.933Z,18.71
2023-09-02T15:35:09.677Z,18.87
2023-09-02T15:37:38.403Z,18.83
2023-09-02T15:40:07.205Z,18.80
2023-09-02T15:42:35.743Z,18.84
2023-09-02T15:45:05.233Z,18.81
2023-09-02T15:47:32.799Z,18.72
2023-09-02T15:50:01.552Z,18.77
2023-09-02T15:52:29.539Z,18.75
2023-09-02T15:54:57.210Z,18.78
2023-09-02T15:57:26.309Z,18.63
2023-09-02T15:59:54.401Z,18.64
2023-09-02T16:02:24.209Z,18.76
2023-09-02T16:04:52.123Z,18.77
2023-09-02T16:07:19.594Z,18.69
2023-09-02T16:09:47.828Z,18.72
2023-09-02T16:12:15.515Z,18.67
2023-09-02T16:14:44.435Z,18.68
2023-09-02T16:17:24.290Z,18.67
2023-09-02T16:19:53.059Z,18.68
2023-09-02T16:22:21.200Z,18.64
2023-09-02T16:24:49.683Z,18.70
2023-09-02T16:27:17.771Z,18.77
2023-09-02T16:29:48.184Z,18.74
2023-09-02T16:32:17.309Z,18.76
2023-09-02T16:34:47.884Z,18.72
2023-09-02T16:37:17.746Z,18.71
2023-09-02T16:39:45.839Z,18.58
2023-09-02T16:42:14.376Z,18.63
2023-09-02T16:44:46.290Z,18.52
2023-09-02T16:47:16.841Z,18.50
2023-09-02T16:49:44.406Z,18.51
2023-09-02T16:52:13.949Z,18.50
2023-09-02T16:54:42.596Z,18.33
2023-09-02T16:57:11.809Z,18.40
2023-09-02T16:59:40.739Z,18.38
2023-09-02T17:02:20.324Z,18.41
2023-09-02T17:04:48.483Z,18.34
2023-09-02T17:07:18.172Z,18.42
2023-09-02T17:09:46.640Z,18.40
2023-09-02T17:12:15.213Z,18.37
2023-09-02T17:14:44.021Z,18.40
2023-09-02T17:17:12.571Z,18.44
2023-09-02T17:19:40.778Z,18.43
2023-09-02T17:22:08.276Z,18.40
2023-09-02T17:24:37.765Z,18.37
2023-09-02T17:27:19.939Z,18.37
2023-09-02T17:29:49.355Z,18.34
2023-09-02T17:32:17.330Z,18.37
2023-09-02T17:34:45.901Z,18.29
2023-09-02T17:37:13.399Z,18.19
2023-09-02T17:39:42.987Z,18.34
2023-09-02T17:42:12.917Z,18.40
2023-09-02T17:44:45.566Z,18.38
2023-09-02T17:47:13.629Z,18.47
2023-09-02T17:49:41.329Z,18.44
2023-09-02T17:52:09.614Z,18.46
2023-09-02T17:54:37.801Z,18.44
2023-09-02T17:57:07.505Z,18.39
2023-09-02T17:59:35.164Z,18.42
2023-09-02T18:02:05.095Z,18.48
2023-09-02T18:04:34.273Z,18.60
2023-09-02T18:07:01.993Z,18.57
2023-09-02T18:09:29.894Z,18.55
2023-09-02T18:11:57.420Z,18.51
2023-09-02T18:14:26.450Z,18.46
2023-09-02T18:16:54.003Z,18.45
2023-09-02T18:19:21.653Z,18.45
2023-09-02T18:21:50.018Z,18.47
2023-09-02T18:24:17.985Z,18.58
2023-09-02T18:26:45.570Z,18.67
2023-09-02T18:29:14.149Z,18.65
2023-09-02T18:31:44.087Z,18.62
2023-09-02T18:34:11.709Z,18.74
2023-09-02T18:36:39.730Z,18.64
2023-09-02T18:39:08.019Z,18.69
2023-09-02T18:41:36.144Z,18.76
2023-09-02T18:44:04.841Z,18.82
2023-09-02T18:46:32.514Z,18.95
2023-09-02T18:49:01.993Z,18.99
2023-09-02T18:51:30.795Z,18.85
2023-09-02T18:53:58.555Z,18.84
2023-09-02T18:56:26.374Z,18.86
2023-09-02T18:58:53.854Z,18.78
2023-09-02T19:01:21.502Z,18.76
2023-09-02T19:03:50.378Z,18.74
2023-09-02T19:06:19.368Z,18.83
2023-09-02T19:08:47.372Z,18.76
2023-09-02T19:11:15.579Z,18.85
2023-09-02T19:13:44.267Z,18.94
2023-09-02T19:16:12.370Z,18.94
2023-09-02T19:18:40.658Z,19.09
2023-09-02T19:21:08.853Z,19.13
2023-09-02T19:23:38.032Z,19.01
2023-09-02T19:26:07.330Z,18.91
2023-09-02T19:28:35.333Z,19.11
2023-09-02T19:31:03.005Z,19.03
2023-09-02T19:33:30.715Z,18.90
2023-09-02T19:35:58.525Z,18.94
2023-09-02T19:38:26.050Z,18.88
2023-09-02T19:40:56.089Z,18.80
2023-09-02T19:43:23.673Z,18.72
2023-09-02T19:45:51.448Z,18.78
2023-09-02T19:48:19.140Z,18.48
2023-09-02T19:50:47.513Z,18.61
2023-09-02T19:53:16.011Z,18.72
2023-09-02T19:55:45.572Z,18.84
2023-09-02T19:58:15.240Z,18.97
2023-09-02T20:00:44.107Z,19.19
2023-09-02T20:03:13.538Z,19.15
2023-09-02T20:05:41.372Z,19.08
2023-09-02T20:08:09.566Z,19.07
2023-09-02T20:10:37.622Z,19.14
2023-09-02T20:13:06.178Z,18.98
2023-09-02T20:15:36.415Z,18.91
2023-09-02T20:18:04.836Z,19.08
2023-09-02T20:20:34.379Z,18.86
2023-09-02T20:23:02.395Z,18.88
2023-09-02T20:25:31.803Z,18.87
2023-09-02T20:28:00.381Z,18.88
2023-09-02T20:30:29.283Z,18.92
2023-09-02T20:32:58.590Z,19.07
2023-09-02T20:35:26.472Z,18.96
2023-09-02T20:37:55.069Z,18.90
2023-09-02T20:40:22.626Z,18.99
2023-09-02T20:42:50.829Z,18.95
2023-09-02T20:45:19.653Z,18.82
2023-09-02T20:47:47.474Z,18.89
2023-09-02T20:50:17.895Z,18.84
2023-09-02T20:52:45.945Z,18.71
2023-09-02T20:55:14.478Z,18.66
2023-09-02T20:57:45.503Z,18.63
2023-09-02T21:00:15.001Z,18.62
2023-09-02T21:02:43.713Z,18.88
2023-09-02T21:05:11.728Z,18.93
2023-09-02T21:07:41.804Z,18.78
2023-09-02T21:10:10.847Z,18.92
2023-09-02T21:12:39.034Z,18.84
2023-09-02T21:15:08.531Z,18.92
2023-09-02T21:17:36.779Z,18.94
2023-09-02T21:20:07.354Z,18.97
2023-09-02T21:22:35.908Z,19.02
2023-09-02T21:25:05.989Z,18.93
2023-09-02T21:27:34.544Z,18.97
2023-09-02T21:30:02.447Z,19.08
2023-09-02T21:32:30.905Z,19.07
2023-09-02T21:34:58.777Z,19.04
2023-09-02T21:37:26.580Z,19.04
2023-09-02T21:39:55.303Z,18.99
2023-09-02T21:42:25.567Z,19.11
2023-09-02T21:44:53.361Z,19.06
2023-09-02T21:47:21.793Z,18.91
2023-09-02T21:49:50.252Z,18.77
2023-09-02T21:52:21.288Z,18.74
2023-09-02T21:54:51.844Z,18.70
2023-09-02T21:57:19.889Z,18.64
2023-09-02T21:59:49.427Z,18.60
2023-09-02T22:02:17.540Z,18.62
2023-09-02T22:04:45.940Z,18.58
2023-09-02T22:07:13.507Z,18.61
2023-09-02T22:09:40.991Z,18.54
2023-09-02T22:12:09.338Z,18.55
2023-09-02T22:14:37.485Z,18.57
2023-09-02T22:17:06.730Z,18.71
2023-09-02T22:19:34.344Z,18.74
2023-09-02T22:22:02.676Z,18.59
2023-09-02T22:24:30.956Z,18.51
2023-09-02T22:26:59.461Z,18.56
2023-09-02T22:29:27.655Z,18.65
2023-09-02T22:31:55.863Z,18.60
2023-09-02T22:34:25.759Z,18.64
2023-09-02T22:36:54.529Z,18.59
2023-09-02T22:39:22.353Z,18.58
2023-09-02T22:41:49.864Z,18.52
2023-09-02T22:44:17.514Z,18.45
2023-09-02T22:46:45.110Z,18.64
2023-09-02T22:49:26.476Z,18.72
2023-09-02T22:51:54.156Z,18.68
2023-09-02T22:54:21.613Z,18.59
2023-09-02T22:56:49.174Z,18.46
2023-09-02T22:59:17.123Z,18.49
2023-09-02T23:01:44.844Z,18.54
2023-09-02T23:04:12.547Z,18.47
2023-09-02T23:06:41.588Z,18.48
2023-09-02T23:09:09.343Z,18.43
2023-09-02T23:11:37.112Z,18.40
2023-09-02T23:14:04.985Z,18.35
2023-09-02T23:16:32.671Z,18.32
2023-09-02T23:19:00.413Z,18.29
2023-09-02T23:21:28.584Z,18.26
2023-09-02T23:23:57.818Z,18.38
2023-09-02T23:26:25.581Z,18.47
2023-09-02T23:28:53.772Z,18.48
2023-09-02T23:31:21.947Z,18.52
2023-09-02T23:33:50.049Z,18.51
2023-09-02T23:36:17.621Z,18.52
2023-09-02T23:38:45.245Z,18.48
2023-09-02T23:41:14.729Z,18.60
2023-09-02T23:43:42.330Z,18.60
2023-09-02T23:46:14.286Z,18.57
2023-09-02T23:48:41.746Z,18.67
2023-09-02T23:51:10.042Z,18.67
2023-09-02T23:53:37.669Z,18.56
2023-09-02T23:56:05.242Z,18.67
2023-09-02T23:58:34.212Z,18.82
